sensor_id;sensor_type;location;lat;lon;timestamp;P1;durP1;ratioP1;P2;durP2;ratioP2
6689;SDS011;3382;51.576;8.076;2022-12-18T00:00:46;68.45;;;43.28;;
6689;SDS011;3382;51.576;8.076;2022-12-18T00:03:13;70.30;;;43.70;;
6689;SDS011;3382;51.576;8.076;2022-12-18T00:05:46;71.07;;;44.45;;
6689;SDS011;3382;51.576;8.076;2022-12-18T00:08:16;73.50;;;45.15;;
6689;SDS011;3382;51.576;8.076;2022-12-18T00:10:42;79.75;;;47.70;;
6689;SDS011;3382;51.576;8.076;2022-12-18T00:13:08;76.63;;;48.57;;
6689;SDS011;3382;51.576;8.076;2022-12-18T00:15:34;82.10;;;49.37;;
6689;SDS011;3382;51.576;8.076;2022-12-18T00:18:00;74.90;;;49.17;;
6689;SDS011;3382;51.576;8.076;2022-12-18T00:20:26;82.13;;;48.73;;
6689;SDS011;3382;51.576;8.076;2022-12-18T00:22:52;83.70;;;49.13;;
6689;SDS011;3382;51.576;8.076;2022-12-18T00:25:18;74.82;;;47.03;;
6689;SDS011;3382;51.576;8.076;2022-12-18T00:27:43;76.97;;;46.43;;
6689;SDS011;3382;51.576;8.076;2022-12-18T00:30:09;73.53;;;46.13;;
6689;SDS011;3382;51.576;8.076;2022-12-18T00:32:35;71.30;;;44.72;;
6689;SDS011;3382;51.576;8.076;2022-12-18T00:35:01;74.07;;;44.90;;
6689;SDS011;3382;51.576;8.076;2022-12-18T00:37:26;74.13;;;45.63;;
6689;SDS011;3382;51.576;8.076;2022-12-18T00:39:52;68.23;;;43.30;;
6689;SDS011;3382;51.576;8.076;2022-12-18T00:42:17;70.60;;;45.00;;
6689;SDS011;3382;51.576;8.076;2022-12-18T00:45:02;66.38;;;41.45;;
6689;SDS011;3382;51.576;8.076;2022-12-18T00:47:28;59.47;;;36.47;;
6689;SDS011;3382;51.576;8.076;2022-12-18T00:49:54;62.73;;;38.13;;
6689;SDS011;3382;51.576;8.076;2022-12-18T00:52:19;60.73;;;38.80;;
6689;SDS011;3382;51.576;8.076;2022-12-18T00:54:45;56.33;;;38.33;;
6689;SDS011;3382;51.576;8.076;2022-12-18T00:57:10;57.70;;;37.63;;
6689;SDS011;3382;51.576;8.076;2022-12-18T00:59:36;59.03;;;38.43;;
6689;SDS011;3382;51.576;8.076;2022-12-18T01:02:01;52.57;;;34.03;;
6689;SDS011;3382;51.576;8.076;2022-12-18T01:04:27;57.93;;;37.63;;
6689;SDS011;3382;51.576;8.076;2022-12-18T01:06:53;52.85;;;34.88;;
6689;SDS011;3382;51.576;8.076;2022-12-18T01:09:19;56.80;;;35.90;;
6689;SDS011;3382;51.576;8.076;2022-12-18T01:11:44;26.93;;;17.80;;
6689;SDS011;3382;51.576;8.076;2022-12-18T01:14:10;43.10;;;28.43;;
6689;SDS011;3382;51.576;8.076;2022-12-18T01:16:35;46.33;;;31.00;;
6689;SDS011;3382;51.576;8.076;2022-12-18T01:19:01;43.73;;;28.80;;
6689;SDS011;3382;51.576;8.076;2022-12-18T01:21:27;41.83;;;28.03;;
6689;SDS011;3382;51.576;8.076;2022-12-18T01:23:53;41.37;;;28.27;;
6689;SDS011;3382;51.576;8.076;2022-12-18T01:26:20;40.88;;;28.38;;
6689;SDS011;3382;51.576;8.076;2022-12-18T01:28:45;39.20;;;28.13;;
6689;SDS011;3382;51.576;8.076;2022-12-18T01:31:19;41.03;;;28.58;;
6689;SDS011;3382;51.576;8.076;2022-12-18T01:33:46;36.33;;;24.38;;
6689;SDS011;3382;51.576;8.076;2022-12-18T01:36:19;36.83;;;23.63;;
6689;SDS011;3382;51.576;8.076;2022-12-18T01:38:47;41.25;;;28.63;;
6689;SDS011;3382;51.576;8.076;2022-12-18T01:41:15;38.65;;;26.63;;
6689;SDS011;3382;51.576;8.076;2022-12-18T01:46:16;35.58;;;24.95;;
6689;SDS011;3382;51.576;8.076;2022-12-18T01:48:42;37.05;;;25.00;;
6689;SDS011;3382;51.576;8.076;2022-12-18T01:51:10;39.78;;;24.70;;
6689;SDS011;3382;51.576;8.076;2022-12-18T01:53:37;37.10;;;25.50;;
6689;SDS011;3382;51.576;8.076;2022-12-18T01:56:05;41.58;;;24.45;;
6689;SDS011;3382;51.576;8.076;2022-12-18T01:58:39;37.97;;;24.92;;
6689;SDS011;3382;51.576;8.076;2022-12-18T02:01:13;36.22;;;24.45;;
6689;SDS011;3382;51.576;8.076;2022-12-18T02:03:42;32.33;;;22.93;;
6689;SDS011;3382;51.576;8.076;2022-12-18T02:06:16;37.35;;;24.52;;
6689;SDS011;3382;51.576;8.076;2022-12-18T02:14:24;35.53;;;23.30;;
6689;SDS011;3382;51.576;8.076;2022-12-18T02:17:09;37.30;;;24.98;;
6689;SDS011;3382;51.576;8.076;2022-12-18T02:25:44;30.67;;;21.83;;
6689;SDS011;3382;51.576;8.076;2022-12-18T02:28:40;35.30;;;22.00;;
6689;SDS011;3382;51.576;8.076;2022-12-18T02:31:28;33.33;;;22.15;;
6689;SDS011;3382;51.576;8.076;2022-12-18T02:34:00;33.50;;;22.83;;
6689;SDS011;3382;51.576;8.076;2022-12-18T02:36:29;32.53;;;23.60;;
6689;SDS011;3382;51.576;8.076;2022-12-18T02:38:56;36.22;;;23.42;;
6689;SDS011;3382;51.576;8.076;2022-12-18T02:41:23;31.15;;;22.52;;
6689;SDS011;3382;51.576;8.076;2022-12-18T02:43:55;33.13;;;22.10;;
6689;SDS011;3382;51.576;8.076;2022-12-18T02:46:43;33.00;;;22.40;;
6689;SDS011;3382;51.576;8.076;2022-12-18T02:49:12;32.47;;;21.90;;
6689;SDS011;3382;51.576;8.076;2022-12-18T02:57:36;30.80;;;20.83;;
6689;SDS011;3382;51.576;8.076;2022-12-18T03:00:16;19.65;;;14.00;;
6689;SDS011;3382;51.576;8.076;2022-12-18T03:05:37;33.05;;;22.65;;
6689;SDS011;3382;51.576;8.076;2022-12-18T03:08:15;30.75;;;20.55;;
6689;SDS011;3382;51.576;8.076;2022-12-18T03:10:51;33.88;;;23.27;;
6689;SDS011;3382;51.576;8.076;2022-12-18T03:13:36;33.20;;;21.70;;
6689;SDS011;3382;51.576;8.076;2022-12-18T03:16:06;28.83;;;20.65;;
6689;SDS011;3382;51.576;8.076;2022-12-18T03:18:36;30.52;;;21.05;;
6689;SDS011;3382;51.576;8.076;2022-12-18T03:21:04;27.60;;;19.80;;
6689;SDS011;3382;51.576;8.076;2022-12-18T03:23:33;31.25;;;20.13;;
6689;SDS011;3382;51.576;8.076;2022-12-18T03:26:12;29.35;;;20.02;;
6689;SDS011;3382;51.576;8.076;2022-12-18T03:28:44;28.63;;;19.85;;
6689;SDS011;3382;51.576;8.076;2022-12-18T03:31:13;28.67;;;20.27;;
6689;SDS011;3382;51.576;8.076;2022-12-18T03:33:53;31.33;;;20.90;;
6689;SDS011;3382;51.576;8.076;2022-12-18T03:36:24;29.80;;;19.83;;
6689;SDS011;3382;51.576;8.076;2022-12-18T03:38:50;29.63;;;18.08;;
6689;SDS011;3382;51.576;8.076;2022-12-18T03:41:32;29.63;;;19.23;;
6689;SDS011;3382;51.576;8.076;2022-12-18T03:44:11;28.30;;;20.00;;
6689;SDS011;3382;51.576;8.076;2022-12-18T03:52:28;33.38;;;21.45;;
6689;SDS011;3382;51.576;8.076;2022-12-18T03:54:58;28.73;;;20.40;;
6689;SDS011;3382;51.576;8.076;2022-12-18T03:57:27;25.58;;;19.08;;
6689;SDS011;3382;51.576;8.076;2022-12-18T03:59:55;26.45;;;19.13;;
6689;SDS011;3382;51.576;8.076;2022-12-18T04:02:27;23.00;;;17.25;;
6689;SDS011;3382;51.576;8.076;2022-12-18T04:04:56;27.95;;;19.38;;
6689;SDS011;3382;51.576;8.076;2022-12-18T04:07:24;25.17;;;17.05;;
6689;SDS011;3382;51.576;8.076;2022-12-18T04:09:50;24.50;;;16.70;;
6689;SDS011;3382;51.576;8.076;2022-12-18T04:12:19;25.33;;;17.70;;
6689;SDS011;3382;51.576;8.076;2022-12-18T04:14:45;24.30;;;17.77;;
6689;SDS011;3382;51.576;8.076;2022-12-18T04:17:10;23.70;;;16.27;;
6689;SDS011;3382;51.576;8.076;2022-12-18T04:19:36;24.37;;;17.87;;
6689;SDS011;3382;51.576;8.076;2022-12-18T04:22:01;25.70;;;18.00;;
6689;SDS011;3382;51.576;8.076;2022-12-18T04:24:27;28.83;;;20.77;;
6689;SDS011;3382;51.576;8.076;2022-12-18T04:26:53;26.70;;;19.20;;
6689;SDS011;3382;51.576;8.076;2022-12-18T04:29:18;28.33;;;19.33;;
6689;SDS011;3382;51.576;8.076;2022-12-18T04:31:44;23.30;;;16.73;;
6689;SDS011;3382;51.576;8.076;2022-12-18T04:34:09;24.33;;;18.07;;
6689;SDS011;3382;51.576;8.076;2022-12-18T04:36:35;25.97;;;18.47;;
6689;SDS011;3382;51.576;8.076;2022-12-18T04:39:00;25.20;;;17.07;;
6689;SDS011;3382;51.576;8.076;2022-12-18T04:41:26;28.03;;;16.87;;
6689;SDS011;3382;51.576;8.076;2022-12-18T04:43:52;25.80;;;17.40;;
6689;SDS011;3382;51.576;8.076;2022-12-18T04:46:17;28.87;;;17.40;;
6689;SDS011;3382;51.576;8.076;2022-12-18T04:48:45;28.87;;;18.27;;
6689;SDS011;3382;51.576;8.076;2022-12-18T04:51:11;22.80;;;17.90;;
6689;SDS011;3382;51.576;8.076;2022-12-18T04:53:37;23.87;;;17.73;;
6689;SDS011;3382;51.576;8.076;2022-12-18T04:56:06;23.80;;;17.57;;
6689;SDS011;3382;51.576;8.076;2022-12-18T04:58:34;28.52;;;17.33;;
6689;SDS011;3382;51.576;8.076;2022-12-18T05:01:00;21.88;;;16.77;;
6689;SDS011;3382;51.576;8.076;2022-12-18T05:03:26;24.30;;;17.20;;
6689;SDS011;3382;51.576;8.076;2022-12-18T05:05:52;22.73;;;17.47;;
6689;SDS011;3382;51.576;8.076;2022-12-18T05:08:18;23.50;;;15.57;;
6689;SDS011;3382;51.576;8.076;2022-12-18T05:10:44;26.20;;;15.67;;
6689;SDS011;3382;51.576;8.076;2022-12-18T05:13:09;21.33;;;15.30;;
6689;SDS011;3382;51.576;8.076;2022-12-18T05:15:35;21.73;;;14.83;;
6689;SDS011;3382;51.576;8.076;2022-12-18T05:18:01;23.43;;;15.73;;
6689;SDS011;3382;51.576;8.076;2022-12-18T05:20:28;22.70;;;16.23;;
6689;SDS011;3382;51.576;8.076;2022-12-18T05:22:53;19.85;;;14.77;;
6689;SDS011;3382;51.576;8.076;2022-12-18T05:25:20;23.73;;;15.07;;
6689;SDS011;3382;51.576;8.076;2022-12-18T05:27:46;25.23;;;16.90;;
6689;SDS011;3382;51.576;8.076;2022-12-18T05:30:12;22.67;;;15.35;;
6689;SDS011;3382;51.576;8.076;2022-12-18T05:32:39;21.52;;;14.55;;
6689;SDS011;3382;51.576;8.076;2022-12-18T05:35:06;23.58;;;15.90;;
6689;SDS011;3382;51.576;8.076;2022-12-18T05:37:33;22.63;;;16.05;;
6689;SDS011;3382;51.576;8.076;2022-12-18T05:39:58;24.90;;;16.40;;
6689;SDS011;3382;51.576;8.076;2022-12-18T05:42:24;20.67;;;15.33;;
6689;SDS011;3382;51.576;8.076;2022-12-18T05:44:50;20.90;;;15.27;;
6689;SDS011;3382;51.576;8.076;2022-12-18T05:47:15;23.20;;;15.73;;
6689;SDS011;3382;51.576;8.076;2022-12-18T05:49:41;23.77;;;16.43;;
6689;SDS011;3382;51.576;8.076;2022-12-18T05:52:06;24.43;;;17.40;;
6689;SDS011;3382;51.576;8.076;2022-12-18T05:54:32;26.97;;;15.57;;
6689;SDS011;3382;51.576;8.076;2022-12-18T05:56:58;22.23;;;15.50;;
6689;SDS011;3382;51.576;8.076;2022-12-18T05:59:23;23.30;;;16.17;;
6689;SDS011;3382;51.576;8.076;2022-12-18T06:01:49;21.43;;;15.53;;
6689;SDS011;3382;51.576;8.076;2022-12-18T06:04:15;22.37;;;14.83;;
6689;SDS011;3382;51.576;8.076;2022-12-18T06:06:40;24.77;;;16.03;;
6689;SDS011;3382;51.576;8.076;2022-12-18T06:09:06;22.37;;;15.50;;
6689;SDS011;3382;51.576;8.076;2022-12-18T06:11:34;19.40;;;14.68;;
6689;SDS011;3382;51.576;8.076;2022-12-18T06:14:02;22.73;;;16.05;;
6689;SDS011;3382;51.576;8.076;2022-12-18T06:16:28;20.98;;;14.43;;
6689;SDS011;3382;51.576;8.076;2022-12-18T06:18:55;18.92;;;14.63;;
6689;SDS011;3382;51.576;8.076;2022-12-18T06:21:22;20.20;;;13.55;;
6689;SDS011;3382;51.576;8.076;2022-12-18T06:23:47;19.10;;;13.70;;
6689;SDS011;3382;51.576;8.076;2022-12-18T06:26:13;21.67;;;14.73;;
6689;SDS011;3382;51.576;8.076;2022-12-18T06:28:39;21.20;;;14.63;;
6689;SDS011;3382;51.576;8.076;2022-12-18T06:31:06;17.98;;;13.35;;
6689;SDS011;3382;51.576;8.076;2022-12-18T06:33:32;17.77;;;12.77;;
6689;SDS011;3382;51.576;8.076;2022-12-18T06:36:00;19.58;;;14.18;;
6689;SDS011;3382;51.576;8.076;2022-12-18T06:38:26;17.25;;;12.70;;
6689;SDS011;3382;51.576;8.076;2022-12-18T06:40:52;17.73;;;13.53;;
6689;SDS011;3382;51.576;8.076;2022-12-18T06:43:18;18.87;;;14.40;;
6689;SDS011;3382;51.576;8.076;2022-12-18T06:45:43;18.20;;;13.50;;
6689;SDS011;3382;51.576;8.076;2022-12-18T06:48:09;21.70;;;14.20;;
6689;SDS011;3382;51.576;8.076;2022-12-18T06:50:34;19.77;;;14.67;;
6689;SDS011;3382;51.576;8.076;2022-12-18T06:53:00;17.10;;;13.83;;
6689;SDS011;3382;51.576;8.076;2022-12-18T06:55:25;16.73;;;13.00;;
6689;SDS011;3382;51.576;8.076;2022-12-18T06:57:51;18.60;;;14.03;;
6689;SDS011;3382;51.576;8.076;2022-12-18T07:00:17;16.87;;;12.90;;
6689;SDS011;3382;51.576;8.076;2022-12-18T07:02:43;19.83;;;14.00;;
6689;SDS011;3382;51.576;8.076;2022-12-18T07:05:08;19.30;;;14.33;;
6689;SDS011;3382;51.576;8.076;2022-12-18T07:07:34;20.33;;;14.57;;
6689;SDS011;3382;51.576;8.076;2022-12-18T07:10:00;19.00;;;13.93;;
6689;SDS011;3382;51.576;8.076;2022-12-18T07:12:26;18.67;;;13.57;;
6689;SDS011;3382;51.576;8.076;2022-12-18T07:14:52;20.20;;;14.85;;
6689;SDS011;3382;51.576;8.076;2022-12-18T07:17:18;18.27;;;13.17;;
6689;SDS011;3382;51.576;8.076;2022-12-18T07:19:43;20.03;;;14.90;;
6689;SDS011;3382;51.576;8.076;2022-12-18T07:22:09;20.60;;;14.10;;
6689;SDS011;3382;51.576;8.076;2022-12-18T07:24:34;18.50;;;13.77;;
6689;SDS011;3382;51.576;8.076;2022-12-18T07:27:00;22.63;;;13.63;;
6689;SDS011;3382;51.576;8.076;2022-12-18T07:29:26;18.13;;;12.67;;
6689;SDS011;3382;51.576;8.076;2022-12-18T07:31:51;19.23;;;13.97;;
6689;SDS011;3382;51.576;8.076;2022-12-18T07:34:17;17.63;;;13.23;;
6689;SDS011;3382;51.576;8.076;2022-12-18T07:36:42;16.83;;;12.07;;
6689;SDS011;3382;51.576;8.076;2022-12-18T07:39:08;16.10;;;12.63;;
6689;SDS011;3382;51.576;8.076;2022-12-18T07:41:36;20.08;;;13.32;;
6689;SDS011;3382;51.576;8.076;2022-12-18T07:44:02;16.97;;;11.77;;
6689;SDS011;3382;51.576;8.076;2022-12-18T07:46:27;22.00;;;15.27;;
6689;SDS011;3382;51.576;8.076;2022-12-18T07:48:53;16.10;;;11.27;;
6689;SDS011;3382;51.576;8.076;2022-12-18T07:51:18;17.63;;;12.10;;
6689;SDS011;3382;51.576;8.076;2022-12-18T07:53:44;13.17;;;10.13;;
6689;SDS011;3382;51.576;8.076;2022-12-18T07:56:11;15.90;;;11.70;;
6689;SDS011;3382;51.576;8.076;2022-12-18T07:58:37;12.27;;;9.47;;
6689;SDS011;3382;51.576;8.076;2022-12-18T08:01:04;12.17;;;9.13;;
6689;SDS011;3382;51.576;8.076;2022-12-18T08:03:30;16.53;;;9.73;;
6689;SDS011;3382;51.576;8.076;2022-12-18T08:05:59;12.93;;;9.30;;
6689;SDS011;3382;51.576;8.076;2022-12-18T08:08:29;12.73;;;8.90;;
6689;SDS011;3382;51.576;8.076;2022-12-18T08:10:55;14.07;;;8.90;;
6689;SDS011;3382;51.576;8.076;2022-12-18T08:13:23;13.00;;;9.87;;
6689;SDS011;3382;51.576;8.076;2022-12-18T08:15:58;16.13;;;11.90;;
6689;SDS011;3382;51.576;8.076;2022-12-18T08:18:26;20.77;;;16.37;;
6689;SDS011;3382;51.576;8.076;2022-12-18T08:20:53;15.03;;;12.30;;
6689;SDS011;3382;51.576;8.076;2022-12-18T08:23:20;16.53;;;13.20;;
6689;SDS011;3382;51.576;8.076;2022-12-18T08:25:46;18.67;;;12.85;;
6689;SDS011;3382;51.576;8.076;2022-12-18T08:28:12;19.37;;;13.43;;
6689;SDS011;3382;51.576;8.076;2022-12-18T08:30:37;19.03;;;14.43;;
6689;SDS011;3382;51.576;8.076;2022-12-18T08:33:03;18.37;;;12.90;;
6689;SDS011;3382;51.576;8.076;2022-12-18T08:35:29;18.98;;;12.25;;
6689;SDS011;3382;51.576;8.076;2022-12-18T08:37:55;18.07;;;12.50;;
6689;SDS011;3382;51.576;8.076;2022-12-18T08:40:20;14.97;;;11.93;;
6689;SDS011;3382;51.576;8.076;2022-12-18T08:42:46;15.20;;;11.57;;
6689;SDS011;3382;51.576;8.076;2022-12-18T08:45:33;17.57;;;12.50;;
6689;SDS011;3382;51.576;8.076;2022-12-18T08:47:59;14.70;;;10.77;;
6689;SDS011;3382;51.576;8.076;2022-12-18T08:50:24;19.47;;;11.60;;
6689;SDS011;3382;51.576;8.076;2022-12-18T08:52:50;21.00;;;13.73;;
6689;SDS011;3382;51.576;8.076;2022-12-18T08:55:15;18.37;;;12.23;;
6689;SDS011;3382;51.576;8.076;2022-12-18T08:57:41;19.83;;;12.57;;
6689;SDS011;3382;51.576;8.076;2022-12-18T09:00:07;16.87;;;12.57;;
6689;SDS011;3382;51.576;8.076;2022-12-18T09:02:33;21.93;;;13.70;;
6689;SDS011;3382;51.576;8.076;2022-12-18T09:04:59;18.57;;;13.67;;
6689;SDS011;3382;51.576;8.076;2022-12-18T09:07:24;23.17;;;16.03;;
6689;SDS011;3382;51.576;8.076;2022-12-18T09:09:50;25.23;;;14.70;;
6689;SDS011;3382;51.576;8.076;2022-12-18T09:12:16;22.30;;;15.10;;
6689;SDS011;3382;51.576;8.076;2022-12-18T09:14:41;22.50;;;15.60;;
6689;SDS011;3382;51.576;8.076;2022-12-18T09:17:07;19.63;;;13.73;;
6689;SDS011;3382;51.576;8.076;2022-12-18T09:19:32;19.80;;;13.37;;
6689;SDS011;3382;51.576;8.076;2022-12-18T09:21:58;22.20;;;14.17;;
6689;SDS011;3382;51.576;8.076;2022-12-18T09:24:24;18.40;;;13.30;;
6689;SDS011;3382;51.576;8.076;2022-12-18T09:26:52;18.20;;;13.03;;
6689;SDS011;3382;51.576;8.076;2022-12-18T09:29:19;13.37;;;10.67;;
6689;SDS011;3382;51.576;8.076;2022-12-18T09:31:45;16.17;;;11.80;;
6689;SDS011;3382;51.576;8.076;2022-12-18T09:34:11;15.67;;;10.90;;
6689;SDS011;3382;51.576;8.076;2022-12-18T09:36:36;17.33;;;11.23;;
6689;SDS011;3382;51.576;8.076;2022-12-18T09:39:03;13.27;;;9.53;;
6689;SDS011;3382;51.576;8.076;2022-12-18T09:44:05;11.57;;;5.47;;
6689;SDS011;3382;51.576;8.076;2022-12-18T09:46:36;13.00;;;8.80;;
6689;SDS011;3382;51.576;8.076;2022-12-18T09:49:10;12.87;;;8.87;;
6689;SDS011;3382;51.576;8.076;2022-12-18T09:51:41;10.27;;;8.47;;
6689;SDS011;3382;51.576;8.076;2022-12-18T09:54:23;12.20;;;8.67;;
6689;SDS011;3382;51.576;8.076;2022-12-18T09:56:53;10.07;;;8.13;;
6689;SDS011;3382;51.576;8.076;2022-12-18T10:01:50;12.73;;;8.47;;
6689;SDS011;3382;51.576;8.076;2022-12-18T10:04:16;14.97;;;8.97;;
6689;SDS011;3382;51.576;8.076;2022-12-18T10:06:52;12.20;;;8.47;;
6689;SDS011;3382;51.576;8.076;2022-12-18T10:15:11;10.20;;;8.67;;
6689;SDS011;3382;51.576;8.076;2022-12-18T10:17:48;10.47;;;8.37;;
6689;SDS011;3382;51.576;8.076;2022-12-18T10:20:26;11.40;;;8.50;;
6689;SDS011;3382;51.576;8.076;2022-12-18T10:23:15;11.87;;;9.33;;
6689;SDS011;3382;51.576;8.076;2022-12-18T10:26:12;12.67;;;8.83;;
6689;SDS011;3382;51.576;8.076;2022-12-18T10:28:38;12.77;;;9.90;;
6689;SDS011;3382;51.576;8.076;2022-12-18T10:31:06;12.33;;;9.03;;
6689;SDS011;3382;51.576;8.076;2022-12-18T10:33:42;11.63;;;8.57;;
6689;SDS011;3382;51.576;8.076;2022-12-18T10:36:09;10.97;;;8.73;;
6689;SDS011;3382;51.576;8.076;2022-12-18T10:38:35;12.27;;;9.13;;
6689;SDS011;3382;51.576;8.076;2022-12-18T10:43:37;14.63;;;8.63;;
6689;SDS011;3382;51.576;8.076;2022-12-18T10:51:05;31.43;;;20.40;;
6689;SDS011;3382;51.576;8.076;2022-12-18T10:53:35;12.77;;;9.07;;
6689;SDS011;3382;51.576;8.076;2022-12-18T10:56:02;11.27;;;8.37;;
6689;SDS011;3382;51.576;8.076;2022-12-18T10:58:36;11.63;;;8.50;;
6689;SDS011;3382;51.576;8.076;2022-12-18T11:01:05;12.00;;;8.43;;
6689;SDS011;3382;51.576;8.076;2022-12-18T11:03:33;11.50;;;8.47;;
6689;SDS011;3382;51.576;8.076;2022-12-18T11:08:30;14.33;;;9.27;;
6689;SDS011;3382;51.576;8.076;2022-12-18T11:10:56;17.43;;;11.17;;
6689;SDS011;3382;51.576;8.076;2022-12-18T11:13:22;13.10;;;9.23;;
6689;SDS011;3382;51.576;8.076;2022-12-18T11:15:50;9.33;;;7.70;;
6689;SDS011;3382;51.576;8.076;2022-12-18T11:18:21;10.90;;;8.50;;
6689;SDS011;3382;51.576;8.076;2022-12-18T11:20:56;10.53;;;8.13;;
6689;SDS011;3382;51.576;8.076;2022-12-18T11:23:26;10.97;;;7.77;;
6689;SDS011;3382;51.576;8.076;2022-12-18T11:25:56;10.93;;;8.67;;
6689;SDS011;3382;51.576;8.076;2022-12-18T11:28:40;11.67;;;8.27;;
6689;SDS011;3382;51.576;8.076;2022-12-18T11:36:39;13.60;;;10.37;;
6689;SDS011;3382;51.576;8.076;2022-12-18T11:39:15;15.33;;;10.47;;
6689;SDS011;3382;51.576;8.076;2022-12-18T11:42:05;14.63;;;9.90;;
6689;SDS011;3382;51.576;8.076;2022-12-18T11:47:26;15.50;;;9.53;;
6689;SDS011;3382;51.576;8.076;2022-12-18T11:49:56;12.40;;;9.73;;
6689;SDS011;3382;51.576;8.076;2022-12-18T11:52:27;16.17;;;9.77;;
6689;SDS011;3382;51.576;8.076;2022-12-18T11:55:01;13.17;;;8.60;;
6689;SDS011;3382;51.576;8.076;2022-12-18T12:00:41;15.60;;;9.33;;
6689;SDS011;3382;51.576;8.076;2022-12-18T12:03:21;12.67;;;8.47;;
6689;SDS011;3382;51.576;8.076;2022-12-18T12:06:10;12.00;;;8.43;;
6689;SDS011;3382;51.576;8.076;2022-12-18T12:11:35;11.47;;;8.10;;
6689;SDS011;3382;51.576;8.076;2022-12-18T12:14:26;14.23;;;9.13;;
6689;SDS011;3382;51.576;8.076;2022-12-18T12:16:59;12.13;;;8.50;;
6689;SDS011;3382;51.576;8.076;2022-12-18T12:19:59;12.37;;;8.77;;
6689;SDS011;3382;51.576;8.076;2022-12-18T12:36:36;10.47;;;8.10;;
6689;SDS011;3382;51.576;8.076;2022-12-18T12:39:10;52.07;;;34.67;;
6689;SDS011;3382;51.576;8.076;2022-12-18T12:41:39;10.13;;;7.80;;
6689;SDS011;3382;51.576;8.076;2022-12-18T12:44:30;10.70;;;7.80;;
6689;SDS011;3382;51.576;8.076;2022-12-18T12:47:01;14.57;;;8.90;;
6689;SDS011;3382;51.576;8.076;2022-12-18T12:49:38;12.07;;;7.83;;
6689;SDS011;3382;51.576;8.076;2022-12-18T12:54:37;13.50;;;8.83;;
6689;SDS011;3382;51.576;8.076;2022-12-18T13:08:06;15.60;;;10.27;;
6689;SDS011;3382;51.576;8.076;2022-12-18T13:10:38;13.27;;;10.43;;
6689;SDS011;3382;51.576;8.076;2022-12-18T13:13:12;13.40;;;10.33;;
6689;SDS011;3382;51.576;8.076;2022-12-18T13:18:28;16.00;;;11.23;;
6689;SDS011;3382;51.576;8.076;2022-12-18T13:25:48;15.93;;;9.93;;
6689;SDS011;3382;51.576;8.076;2022-12-18T13:36:43;16.17;;;11.23;;
6689;SDS011;3382;51.576;8.076;2022-12-18T13:39:11;16.73;;;10.40;;
6689;SDS011;3382;51.576;8.076;2022-12-18T13:41:44;17.63;;;11.80;;
6689;SDS011;3382;51.576;8.076;2022-12-18T13:46:55;22.33;;;14.93;;
6689;SDS011;3382;51.576;8.076;2022-12-18T13:54:45;20.00;;;12.63;;
6689;SDS011;3382;51.576;8.076;2022-12-18T13:57:32;20.27;;;13.70;;
6689;SDS011;3382;51.576;8.076;2022-12-18T13:59:58;18.17;;;13.23;;
6689;SDS011;3382;51.576;8.076;2022-12-18T14:02:37;16.27;;;13.53;;
6689;SDS011;3382;51.576;8.076;2022-12-18T14:05:03;18.93;;;13.67;;
6689;SDS011;3382;51.576;8.076;2022-12-18T14:07:29;19.47;;;14.10;;
6689;SDS011;3382;51.576;8.076;2022-12-18T14:09:57;17.43;;;13.10;;
6689;SDS011;3382;51.576;8.076;2022-12-18T14:17:59;19.17;;;14.43;;
6689;SDS011;3382;51.576;8.076;2022-12-18T14:20:28;19.27;;;14.57;;
6689;SDS011;3382;51.576;8.076;2022-12-18T14:22:56;20.23;;;14.97;;
6689;SDS011;3382;51.576;8.076;2022-12-18T14:25:23;17.87;;;12.87;;
6689;SDS011;3382;51.576;8.076;2022-12-18T14:30:41;18.07;;;13.83;;
6689;SDS011;3382;51.576;8.076;2022-12-18T14:35:38;19.57;;;14.10;;
6689;SDS011;3382;51.576;8.076;2022-12-18T14:43:28;18.90;;;13.07;;
6689;SDS011;3382;51.576;8.076;2022-12-18T14:45:56;16.37;;;12.27;;
6689;SDS011;3382;51.576;8.076;2022-12-18T14:51:03;18.70;;;12.53;;
6689;SDS011;3382;51.576;8.076;2022-12-18T14:54:15;18.33;;;13.60;;
6689;SDS011;3382;51.576;8.076;2022-12-18T14:56:44;17.03;;;13.07;;
6689;SDS011;3382;51.576;8.076;2022-12-18T14:59:15;20.90;;;12.97;;
6689;SDS011;3382;51.576;8.076;2022-12-18T15:12:50;18.57;;;12.27;;
6689;SDS011;3382;51.576;8.076;2022-12-18T15:20:33;17.70;;;13.03;;
6689;SDS011;3382;51.576;8.076;2022-12-18T15:23:24;28.17;;;20.87;;
6689;SDS011;3382;51.576;8.076;2022-12-18T15:28:23;29.33;;;19.10;;
6689;SDS011;3382;51.576;8.076;2022-12-18T15:33:30;21.17;;;14.80;;
6689;SDS011;3382;51.576;8.076;2022-12-18T15:35:58;22.60;;;16.67;;
6689;SDS011;3382;51.576;8.076;2022-12-18T15:38:28;21.70;;;15.40;;
6689;SDS011;3382;51.576;8.076;2022-12-18T15:40:54;20.50;;;16.13;;
6689;SDS011;3382;51.576;8.076;2022-12-18T15:43:23;23.93;;;16.70;;
6689;SDS011;3382;51.576;8.076;2022-12-18T15:46:20;23.43;;;15.43;;
6689;SDS011;3382;51.576;8.076;2022-12-18T15:48:46;19.77;;;14.00;;
6689;SDS011;3382;51.576;8.076;2022-12-18T15:51:18;17.23;;;12.63;;
6689;SDS011;3382;51.576;8.076;2022-12-18T15:53:50;17.10;;;12.30;;
6689;SDS011;3382;51.576;8.076;2022-12-18T15:56:18;23.67;;;18.67;;
6689;SDS011;3382;51.576;8.076;2022-12-18T15:59:04;21.43;;;15.67;;
6689;SDS011;3382;51.576;8.076;2022-12-18T16:01:38;20.63;;;13.80;;
6689;SDS011;3382;51.576;8.076;2022-12-18T16:04:05;17.73;;;13.83;;
6689;SDS011;3382;51.576;8.076;2022-12-18T16:06:30;16.40;;;12.47;;
6689;SDS011;3382;51.576;8.076;2022-12-18T16:08:56;18.50;;;14.27;;
6689;SDS011;3382;51.576;8.076;2022-12-18T16:11:25;17.00;;;12.57;;
6689;SDS011;3382;51.576;8.076;2022-12-18T16:14:20;23.63;;;14.50;;
6689;SDS011;3382;51.576;8.076;2022-12-18T16:16:49;19.40;;;13.40;;
6689;SDS011;3382;51.576;8.076;2022-12-18T16:19:17;14.67;;;9.77;;
6689;SDS011;3382;51.576;8.076;2022-12-18T16:21:43;11.43;;;8.30;;
6689;SDS011;3382;51.576;8.076;2022-12-18T16:24:21;9.97;;;6.97;;
6689;SDS011;3382;51.576;8.076;2022-12-18T16:26:55;8.47;;;6.50;;
6689;SDS011;3382;51.576;8.076;2022-12-18T16:29:22;15.43;;;7.70;;
6689;SDS011;3382;51.576;8.076;2022-12-18T16:31:51;12.53;;;8.13;;
6689;SDS011;3382;51.576;8.076;2022-12-18T16:34:27;13.13;;;8.53;;
6689;SDS011;3382;51.576;8.076;2022-12-18T16:36:58;11.93;;;7.23;;
6689;SDS011;3382;51.576;8.076;2022-12-18T16:39:25;12.03;;;8.90;;
6689;SDS011;3382;51.576;8.076;2022-12-18T16:41:51;12.47;;;7.07;;
6689;SDS011;3382;51.576;8.076;2022-12-18T16:44:17;10.03;;;7.37;;
6689;SDS011;3382;51.576;8.076;2022-12-18T16:46:43;9.40;;;6.83;;
6689;SDS011;3382;51.576;8.076;2022-12-18T16:49:12;9.67;;;6.57;;
6689;SDS011;3382;51.576;8.076;2022-12-18T16:51:40;9.93;;;6.77;;
6689;SDS011;3382;51.576;8.076;2022-12-18T16:54:05;10.10;;;6.67;;
6689;SDS011;3382;51.576;8.076;2022-12-18T16:56:31;8.53;;;6.47;;
6689;SDS011;3382;51.576;8.076;2022-12-18T16:58:58;9.53;;;6.70;;
6689;SDS011;3382;51.576;8.076;2022-12-18T17:01:25;9.60;;;6.90;;
6689;SDS011;3382;51.576;8.076;2022-12-18T17:03:57;10.13;;;6.63;;
6689;SDS011;3382;51.576;8.076;2022-12-18T17:06:25;11.90;;;8.03;;
6689;SDS011;3382;51.576;8.076;2022-12-18T17:08:55;13.20;;;8.67;;
6689;SDS011;3382;51.576;8.076;2022-12-18T17:11:23;13.33;;;7.93;;
6689;SDS011;3382;51.576;8.076;2022-12-18T17:13:49;10.87;;;7.57;;
6689;SDS011;3382;51.576;8.076;2022-12-18T17:16:15;10.77;;;8.20;;
6689;SDS011;3382;51.576;8.076;2022-12-18T17:18:41;14.70;;;8.83;;
6689;SDS011;3382;51.576;8.076;2022-12-18T17:21:08;10.97;;;7.63;;
6689;SDS011;3382;51.576;8.076;2022-12-18T17:23:35;14.43;;;8.60;;
6689;SDS011;3382;51.576;8.076;2022-12-18T17:26:01;12.30;;;8.80;;
6689;SDS011;3382;51.576;8.076;2022-12-18T17:28:28;17.03;;;8.23;;
6689;SDS011;3382;51.576;8.076;2022-12-18T17:30:55;12.17;;;8.50;;
6689;SDS011;3382;51.576;8.076;2022-12-18T17:33:21;16.63;;;8.63;;
6689;SDS011;3382;51.576;8.076;2022-12-18T17:35:47;12.90;;;8.43;;
6689;SDS011;3382;51.576;8.076;2022-12-18T17:38:13;12.93;;;8.50;;